createdAt,value
2018-10-05T00:02:23.037Z,94.00
2018-10-05T00:04:53.477Z,93.70
2018-10-05T00:07:23.894Z,93.90
2018-10-05T00:09:54.307Z,93.80
2018-10-05T00:12:25.464Z,93.70
2018-10-05T00:14:55.848Z,93.60
2018-10-05T00:17:26.250Z,93.60
2018-10-05T00:20:02.717Z,93.50
2018-10-05T00:22:40.451Z,93.90
2018-10-05T00:25:10.799Z,93.50
2018-10-05T00:27:44.606Z,94.80
2018-10-05T00:30:15.774Z,94.60
2018-10-05T00:32:46.199Z,94.60
2018-10-05T00:35:16.592Z,94.70
2018-10-05T00:37:46.996Z,95.60
2018-10-05T00:40:17.402Z,95.50
2018-10-05T00:42:49.840Z,95.40
2018-10-05T00:45:21.019Z,95.80
2018-10-05T00:47:54.497Z,95.80
2018-10-05T00:50:24.839Z,95.70
2018-10-05T00:52:55.281Z,95.20
2018-10-05T00:55:25.667Z,95.30
2018-10-05T00:57:56.086Z,95.40
2018-10-05T01:00:27.264Z,95.30
2018-10-05T01:02:57.692Z,95.30
2018-10-05T01:05:30.131Z,95.20
2018-10-05T01:08:01.312Z,95.00
2018-10-05T01:10:31.744Z,95.00
2018-10-05T01:13:02.135Z,94.90
2018-10-05T01:15:33.318Z,95.90
2018-10-05T01:18:03.740Z,95.90
2018-10-05T01:20:36.199Z,95.30
2018-10-05T01:23:06.623Z,94.90
2018-10-05T01:25:37.019Z,95.00
2018-10-05T01:28:08.132Z,94.80
2018-10-05T01:30:38.541Z,94.80
2018-10-05T01:33:12.010Z,94.80
2018-10-05T01:35:42.413Z,94.40
2018-10-05T01:38:12.829Z,94.50
2018-10-05T01:40:43.222Z,94.30
2018-10-05T01:43:19.772Z,94.40
2018-10-05T01:45:50.199Z,94.60
2018-10-05T01:48:20.607Z,94.70
2018-10-05T01:50:51.795Z,95.40
2018-10-05T01:53:40.837Z,95.30
2018-10-05T01:58:58.491Z,95.80
2018-10-05T02:01:28.876Z,96.00
2018-10-05T02:03:59.279Z,95.90
2018-10-05T02:06:29.689Z,95.90
2018-10-05T02:09:00.078Z,95.20
2018-10-05T02:11:31.250Z,95.20
2018-10-05T02:14:01.662Z,95.20
2018-10-05T02:16:32.070Z,95.30
2018-10-05T02:19:02.391Z,95.40
2018-10-05T02:21:32.819Z,95.40
2018-10-05T02:24:03.989Z,95.70
2018-10-05T02:26:34.313Z,95.60
2018-10-05T02:29:04.909Z,95.40
2018-10-05T02:31:35.294Z,95.60
2018-10-05T02:34:11.858Z,95.50
2018-10-05T02:36:42.283Z,95.40
2018-10-05T02:39:12.668Z,95.80
2018-10-05T02:41:43.124Z,95.90
2018-10-05T02:44:13.489Z,96.10
2018-10-05T02:46:43.880Z,95.60
2018-10-05T02:49:14.292Z,96.10
2018-10-05T02:51:44.705Z,95.90
2018-10-05T02:54:15.874Z,95.70
2018-10-05T02:56:46.299Z,95.70
2018-10-05T02:59:16.696Z,95.80
2018-10-05T03:02:16.408Z,95.70
2018-10-05T03:04:46.815Z,95.40
2018-10-05T03:07:17.399Z,96.10
2018-10-05T03:09:47.801Z,95.90
2018-10-05T03:12:18.986Z,96.30
2018-10-05T03:14:49.299Z,96.30
2018-10-05T03:17:19.702Z,96.10
2018-10-05T03:19:50.952Z,96.20
2018-10-05T03:22:23.320Z,96.20
2018-10-05T03:24:53.655Z,96.40
2018-10-05T03:27:25.100Z,96.10
2018-10-05T03:29:55.509Z,96.10
2018-10-05T03:32:25.925Z,96.30
2018-10-05T03:34:56.340Z,96.50
2018-10-05T03:37:26.729Z,96.60
2018-10-05T03:39:57.131Z,96.60
2018-10-05T03:42:28.286Z,96.50
2018-10-05T03:44:58.692Z,96.50
2018-10-05T03:47:29.096Z,96.30
2018-10-05T03:49:59.504Z,96.30
2018-10-05T03:52:32.967Z,96.30
2018-10-05T03:55:04.341Z,96.40
2018-10-05T03:57:34.751Z,96.40
2018-10-05T04:00:05.170Z,96.50
2018-10-05T04:02:36.633Z,96.80
2018-10-05T04:05:07.035Z,96.80
2018-10-05T04:07:38.199Z,97.30
2018-10-05T04:10:08.837Z,97.30
2018-10-05T04:12:39.231Z,97.10
2018-10-05T04:15:09.678Z,97.20
2018-10-05T04:17:40.858Z,97.20
2018-10-05T04:20:15.360Z,97.20
2018-10-05T04:22:45.791Z,97.10
2018-10-05T04:25:16.231Z,97.00
2018-10-05T04:27:47.656Z,97.30
2018-10-05T04:30:18.824Z,97.40
2018-10-05T04:32:49.248Z,97.40
2018-10-05T04:35:19.652Z,97.00
2018-10-05T04:37:50.043Z,97.30
2018-10-05T04:40:21.201Z,97.10
2018-10-05T04:42:51.609Z,96.90
2018-10-05T04:45:22.005Z,96.90
2018-10-05T04:47:52.432Z,96.90
2018-10-05T04:50:22.832Z,97.10
2018-10-05T04:52:53.992Z,97.30
2018-10-05T04:55:25.335Z,97.30
2018-10-05T04:57:55.733Z,97.40
2018-10-05T05:00:26.351Z,97.40
2018-10-05T05:02:56.738Z,97.40
2018-10-05T05:05:27.164Z,96.90
2018-10-05T05:07:59.622Z,97.40
2018-10-05T05:10:30.048Z,96.90
2018-10-05T05:13:00.450Z,96.80
2018-10-05T05:15:30.763Z,97.10
2018-10-05T05:18:01.174Z,97.30
2018-10-05T05:20:31.568Z,96.60
2018-10-05T05:23:02.994Z,96.90
2018-10-05T05:25:36.204Z,97.10
2018-10-05T05:28:06.627Z,97.10
2018-10-05T05:30:37.033Z,97.30
2018-10-05T05:33:08.215Z,97.30
2018-10-05T05:35:38.645Z,97.30
2018-10-05T05:38:09.057Z,97.50
2018-10-05T05:40:39.480Z,97.50
2018-10-05T05:43:10.898Z,97.60
2018-10-05T05:45:41.281Z,97.40
2018-10-05T05:48:11.668Z,97.50
2018-10-05T05:50:43.002Z,96.30
2018-10-05T05:53:13.377Z,96.30
2018-10-05T05:55:43.833Z,96.90
2018-10-05T05:58:14.919Z,98.30
2018-10-05T06:00:45.999Z,98.40
2018-10-05T06:03:16.414Z,98.40
2018-10-05T06:05:46.996Z,97.80
2018-10-05T06:11:05.847Z,97.20
2018-10-05T06:13:54.482Z,97.50
2018-10-05T06:16:25.972Z,97.70
2018-10-05T06:18:56.498Z,97.60
2018-10-05T06:21:26.921Z,97.60
2018-10-05T06:23:57.272Z,97.70
2018-10-05T06:26:28.402Z,98.10
2018-10-05T06:28:58.795Z,98.00
2018-10-05T06:31:29.370Z,95.90
2018-10-05T06:33:59.686Z,95.50
2018-10-05T06:36:30.085Z,94.50
2018-10-05T06:39:19.844Z,94.60
2018-10-05T06:41:50.261Z,93.60
2018-10-05T06:44:20.605Z,95.10
2018-10-05T06:46:51.008Z,95.80
2018-10-05T06:49:21.401Z,96.40
2018-10-05T06:51:51.715Z,96.40
2018-10-05T06:54:22.107Z,96.80
2018-10-05T06:56:53.507Z,96.60
2018-10-05T06:59:23.885Z,96.60
2018-10-05T07:01:56.446Z,98.20
2018-10-05T07:04:27.394Z,96.00
2018-10-05T07:06:57.798Z,97.00
2018-10-05T07:09:28.202Z,96.40
2018-10-05T07:11:58.586Z,96.40
2018-10-05T07:14:33.085Z,96.60
2018-10-05T07:17:03.562Z,96.50
2018-10-05T07:19:35.880Z,96.60
2018-10-05T07:22:06.281Z,95.60
2018-10-05T07:24:36.690Z,95.90
2018-10-05T07:27:07.074Z,95.90
2018-10-05T07:29:37.463Z,96.10
2018-10-05T07:32:08.500Z,96.30
2018-10-05T07:34:38.886Z,96.40
2018-10-05T07:37:16.643Z,96.20
2018-10-05T07:39:47.013Z,96.10
2018-10-05T07:42:17.331Z,96.40
2018-10-05T07:44:47.747Z,96.20
2018-10-05T07:47:18.159Z,96.40
2018-10-05T07:49:48.728Z,96.60
2018-10-05T07:52:19.366Z,96.80
2018-10-05T07:54:52.740Z,96.60
2018-10-05T07:57:25.293Z,96.70
2018-10-05T07:59:55.568Z,96.50
2018-10-05T08:02:25.894Z,96.60
2018-10-05T08:04:56.285Z,96.50
2018-10-05T08:07:26.678Z,96.50
2018-10-05T08:10:02.793Z,97.20
2018-10-05T08:12:33.193Z,97.20
2018-10-05T08:15:03.513Z,97.00
2018-10-05T08:17:33.905Z,97.20
2018-10-05T08:20:04.223Z,97.20
2018-10-05T08:22:35.376Z,97.60
2018-10-05T08:25:06.030Z,97.40
2018-10-05T08:27:36.424Z,97.40
2018-10-05T08:30:06.746Z,97.00
2018-10-05T08:32:37.147Z,97.10
2018-10-05T08:35:09.571Z,97.20
2018-10-05T08:37:40.740Z,97.40
2018-10-05T08:40:11.246Z,97.30
2018-10-05T08:42:42.565Z,97.30
2018-10-05T08:45:12.944Z,97.10
2018-10-05T08:47:43.360Z,97.40
2018-10-05T08:50:14.504Z,97.40
2018-10-05T08:52:45.672Z,97.30
2018-10-05T08:55:16.103Z,97.30
2018-10-05T08:57:46.572Z,97.00
2018-10-05T09:00:17.005Z,95.70
2018-10-05T09:02:48.393Z,97.00
2018-10-05T09:05:18.784Z,96.80
2018-10-05T09:07:49.162Z,96.70
2018-10-05T09:10:19.560Z,96.70
2018-10-05T09:12:49.944Z,96.80
2018-10-05T09:15:22.353Z,96.70
2018-10-05T09:17:53.614Z,97.10
2018-10-05T09:20:23.909Z,97.10
2018-10-05T09:22:54.297Z,96.70
2018-10-05T09:25:24.695Z,96.10
2018-10-05T09:27:55.083Z,95.80
2018-10-05T09:30:25.665Z,96.30
2018-10-05T09:33:00.090Z,95.50
2018-10-05T09:35:31.499Z,96.10
2018-10-05T09:38:02.013Z,96.00
2018-10-05T09:40:32.212Z,95.40
2018-10-05T09:43:04.642Z,95.40
2018-10-05T09:45:35.800Z,95.90
2018-10-05T09:48:06.864Z,95.80
2018-10-05T09:50:37.241Z,95.50
2018-10-05T09:53:07.623Z,96.00
2018-10-05T09:55:39.046Z,96.00
2018-10-05T09:58:09.430Z,95.00
2018-10-05T10:00:39.813Z,94.90
2018-10-05T10:03:10.186Z,94.50
2018-10-05T10:05:40.855Z,94.50
2018-10-05T10:08:12.125Z,93.10
2018-10-05T10:10:43.155Z,93.40
2018-10-05T10:13:13.776Z,93.40
2018-10-05T10:15:44.943Z,93.50
2018-10-05T10:18:15.335Z,93.50
2018-10-05T10:20:47.517Z,92.80
2018-10-05T10:26:05.162Z,92.40
2018-10-05T10:28:35.647Z,91.40
2018-10-05T10:31:06.956Z,91.40
2018-10-05T10:33:37.404Z,91.70
2018-10-05T10:36:07.782Z,92.10
2018-10-05T10:38:38.937Z,90.80
2018-10-05T10:41:10.100Z,90.50
2018-10-05T10:43:40.508Z,90.40
2018-10-05T10:46:11.655Z,90.80
2018-10-05T10:48:42.822Z,88.60
2018-10-05T10:51:13.205Z,88.50
2018-10-05T10:53:43.588Z,89.30
2018-10-05T10:56:19.140Z,89.30
2018-10-05T10:58:53.505Z,87.30
2018-10-05T11:01:23.918Z,86.80
2018-10-05T11:03:54.366Z,87.80
2018-10-05T11:06:24.866Z,87.40
2018-10-05T11:08:55.197Z,88.00
2018-10-05T11:11:25.578Z,88.30
2018-10-05T11:13:55.959Z,88.30
2018-10-05T11:16:26.626Z,88.00
2018-10-05T11:18:57.023Z,88.10
2018-10-05T11:21:27.412Z,88.20
2018-10-05T11:23:57.824Z,88.90
2018-10-05T11:26:28.219Z,89.70
2018-10-05T11:28:59.354Z,88.40
2018-10-05T11:31:30.524Z,88.50
2018-10-05T11:34:00.931Z,88.50
2018-10-05T11:36:32.073Z,86.90
2018-10-05T11:39:03.244Z,87.90
2018-10-05T11:41:33.671Z,87.80
2018-10-05T11:44:04.006Z,86.30
2018-10-05T11:46:34.400Z,86.50
2018-10-05T11:49:05.539Z,87.60
2018-10-05T11:51:36.697Z,88.80
2018-10-05T11:54:07.109Z,87.90
2018-10-05T11:56:37.499Z,87.80
2018-10-05T11:59:07.886Z,87.80
2018-10-05T12:01:38.996Z,88.00
2018-10-05T12:04:09.376Z,86.30
2018-10-05T12:06:40.773Z,86.80
2018-10-05T12:09:11.163Z,86.60
2018-10-05T12:11:41.536Z,85.90
2018-10-05T12:14:11.919Z,84.50
2018-10-05T12:16:42.317Z,85.60
2018-10-05T12:19:12.703Z,86.00
2018-10-05T12:21:43.088Z,85.00
2018-10-05T12:24:13.486Z,84.70
2018-10-05T12:26:43.976Z,85.00
2018-10-05T12:29:14.192Z,84.40
2018-10-05T12:31:44.595Z,81.80
2018-10-05T12:34:14.967Z,82.40
2018-10-05T12:36:45.356Z,81.60
2018-10-05T12:39:17.790Z,82.40
2018-10-05T12:41:48.177Z,82.70
2018-10-05T12:44:18.571Z,81.40
2018-10-05T12:46:49.997Z,81.30
2018-10-05T12:49:20.369Z,79.50
2018-10-05T12:51:50.773Z,79.70
2018-10-05T12:54:22.125Z,79.00
2018-10-05T12:56:54.305Z,76.90
2018-10-05T12:59:29.786Z,77.40
2018-10-05T13:02:00.165Z,76.40
2018-10-05T13:04:35.239Z,75.50
2018-10-05T13:07:05.639Z,76.20
2018-10-05T13:09:55.402Z,76.40
2018-10-05T13:12:25.795Z,76.80
2018-10-05T13:14:56.189Z,74.60
2018-10-05T13:17:28.626Z,74.00
2018-10-05T13:19:59.027Z,73.70
2018-10-05T13:22:29.414Z,71.20
2018-10-05T13:24:59.803Z,72.60
2018-10-05T13:27:30.190Z,72.30
2018-10-05T13:30:00.848Z,70.70
2018-10-05T13:32:31.243Z,70.60
2018-10-05T13:35:01.653Z,70.10
2018-10-05T13:37:32.039Z,70.00
2018-10-05T13:40:02.426Z,70.10
2018-10-05T13:42:32.823Z,69.10
2018-10-05T13:47:50.645Z,64.40
2018-10-05T13:50:23.912Z,64.50
2018-10-05T13:52:55.079Z,64.40
2018-10-05T13:55:25.471Z,64.10
2018-10-05T13:57:58.342Z,65.10
2018-10-05T14:00:28.922Z,65.90
2018-10-05T14:02:59.302Z,65.80
2018-10-05T14:05:29.690Z,66.40
2018-10-05T14:08:00.018Z,63.60
2018-10-05T14:10:30.450Z,64.60
2018-10-05T14:13:01.567Z,63.70
2018-10-05T14:15:31.890Z,63.80
2018-10-05T14:18:02.301Z,63.70
2018-10-05T14:20:33.525Z,63.80
2018-10-05T14:23:04.614Z,63.40
2018-10-05T14:25:35.851Z,63.80
2018-10-05T14:28:06.163Z,63.80
2018-10-05T14:30:39.740Z,63.10
2018-10-05T14:33:10.115Z,62.90
2018-10-05T14:35:43.014Z,63.50
2018-10-05T14:38:13.428Z,63.00
2018-10-05T14:40:44.056Z,61.90
2018-10-05T14:43:15.203Z,62.50
2018-10-05T14:45:45.686Z,62.50
2018-10-05T14:48:15.985Z,63.40
2018-10-05T14:50:49.240Z,62.50
2018-10-05T14:53:19.732Z,62.10
2018-10-05T14:55:50.128Z,61.30
2018-10-05T14:58:21.529Z,60.70
2018-10-05T15:00:52.939Z,61.20
2018-10-05T15:03:23.318Z,61.00
2018-10-05T15:05:58.791Z,60.50
2018-10-05T15:08:29.195Z,60.50
2018-10-05T15:11:03.192Z,60.40
2018-10-05T15:13:33.604Z,60.30
2018-10-05T15:16:06.713Z,60.00
2018-10-05T15:18:37.871Z,59.60
2018-10-05T15:21:08.270Z,59.60
2018-10-05T15:23:39.412Z,60.30
2018-10-05T15:26:09.790Z,60.00
2018-10-05T15:28:40.180Z,60.40
2018-10-05T15:31:11.334Z,61.00
2018-10-05T15:33:42.504Z,61.00
2018-10-05T15:36:12.889Z,61.00
2018-10-05T15:38:43.287Z,61.30
2018-10-05T15:41:20.427Z,62.20
2018-10-05T15:43:53.341Z,62.80
2018-10-05T15:46:27.826Z,62.60
2018-10-05T15:49:01.124Z,63.30
2018-10-05T15:51:31.690Z,63.30
2018-10-05T15:54:04.134Z,63.90
2018-10-05T15:56:37.338Z,64.90
2018-10-05T15:59:07.779Z,63.80
2018-10-05T16:01:43.785Z,64.50
2018-10-05T16:04:14.166Z,65.50
2018-10-05T16:06:44.556Z,65.50
2018-10-05T16:09:14.954Z,65.00
2018-10-05T16:11:45.331Z,66.00
2018-10-05T16:14:15.721Z,65.70
2018-10-05T16:16:46.106Z,65.30
2018-10-05T16:19:16.494Z,66.10
2018-10-05T16:21:46.868Z,66.60
2018-10-05T16:24:19.301Z,66.70
2018-10-05T16:26:49.860Z,67.60
2018-10-05T16:29:20.227Z,68.00
2018-10-05T16:31:50.627Z,68.70
2018-10-05T16:34:23.425Z,69.10
2018-10-05T16:36:53.796Z,68.50
2018-10-05T16:42:14.791Z,68.50
2018-10-05T16:44:45.195Z,69.00
2018-10-05T16:47:15.581Z,69.60
2018-10-05T16:49:48.840Z,69.90
2018-10-05T16:52:19.221Z,70.10
2018-10-05T16:55:09.739Z,70.60
2018-10-05T16:57:42.711Z,70.60
2018-10-05T17:00:19.160Z,71.40
2018-10-05T17:02:54.984Z,71.80
2018-10-05T17:05:28.066Z,72.00
2018-10-05T17:07:58.449Z,72.10
2018-10-05T17:10:28.881Z,72.90
2018-10-05T17:13:01.720Z,73.00
2018-10-05T17:15:32.099Z,73.10
2018-10-05T17:18:05.167Z,73.40
2018-10-05T17:20:37.605Z,73.80
2018-10-05T17:23:07.983Z,74.50
2018-10-05T17:25:40.419Z,73.80
2018-10-05T17:28:13.474Z,74.20
2018-10-05T17:30:46.270Z,74.30
2018-10-05T17:33:19.300Z,74.20
2018-10-05T17:35:52.602Z,73.80
2018-10-05T17:38:25.521Z,74.10
2018-10-05T17:40:58.761Z,74.00
2018-10-05T17:43:29.139Z,74.30
2018-10-05T17:45:59.519Z,74.10
2018-10-05T17:48:29.860Z,74.10
2018-10-05T17:51:05.353Z,74.20
2018-10-05T17:53:36.507Z,74.30
2018-10-05T17:56:07.715Z,75.00
2018-10-05T17:58:38.809Z,75.30
2018-10-05T18:01:10.234Z,75.20
2018-10-05T18:03:43.500Z,75.10
2018-10-05T18:06:16.458Z,75.60
2018-10-05T18:08:47.782Z,76.20
2018-10-05T18:11:18.184Z,76.50
2018-10-05T18:13:51.503Z,83.00
2018-10-05T18:16:21.888Z,83.00
2018-10-05T18:18:57.964Z,83.00
2018-10-05T18:21:30.765Z,83.30
2018-10-05T18:24:04.037Z,83.40
2018-10-05T18:26:34.409Z,83.10
2018-10-05T18:29:04.780Z,83.70
2018-10-05T18:31:35.169Z,83.70
2018-10-05T18:34:08.359Z,83.50
2018-10-05T18:36:39.828Z,83.10
2018-10-05T18:39:10.405Z,83.50
2018-10-05T18:41:40.787Z,84.00
2018-10-05T18:44:11.238Z,84.10
2018-10-05T18:46:44.270Z,84.10
2018-10-05T18:52:05.482Z,84.60
2018-10-05T18:54:35.856Z,84.60
2018-10-05T18:57:11.564Z,84.40
2018-10-05T18:59:44.726Z,85.00
2018-10-05T19:02:15.122Z,85.00
2018-10-05T19:04:45.742Z,84.80
2018-10-05T19:07:16.057Z,85.10
2018-10-05T19:09:57.597Z,85.00
2018-10-05T19:12:28.171Z,85.00
2018-10-05T19:14:58.569Z,85.30
2018-10-05T19:17:31.424Z,85.00
2018-10-05T19:20:22.214Z,85.10
2018-10-05T19:22:53.630Z,85.30
2018-10-05T19:25:27.269Z,85.50
2018-10-05T19:27:59.716Z,85.40
2018-10-05T19:30:36.017Z,85.50
2018-10-05T19:33:13.329Z,85.50
2018-10-05T19:35:43.716Z,85.70
2018-10-05T19:38:15.128Z,85.70
2018-10-05T19:40:45.527Z,85.80
2018-10-05T19:43:21.635Z,86.50
2018-10-05T19:45:52.034Z,86.40
2018-10-05T19:48:25.157Z,86.50
2018-10-05T19:50:55.548Z,86.70
2018-10-05T19:53:26.069Z,87.00
2018-10-05T19:55:56.490Z,87.40
2018-10-05T19:58:26.876Z,87.50
2018-10-05T20:00:57.272Z,87.90
2018-10-05T20:03:28.411Z,88.50
2018-10-05T20:05:58.791Z,88.40
2018-10-05T20:08:31.853Z,88.10
2018-10-05T20:11:05.829Z,88.10
2018-10-05T20:13:42.018Z,87.70
2018-10-05T20:16:13.164Z,90.10
2018-10-05T20:18:46.530Z,90.10
2018-10-05T20:21:19.767Z,90.00
2018-10-05T20:23:50.154Z,89.40
2018-10-05T20:26:20.554Z,89.20
2018-10-05T20:28:57.952Z,89.40
2018-10-05T20:31:30.387Z,89.70
2018-10-05T20:34:03.251Z,89.00
2018-10-05T20:36:34.722Z,89.50
2018-10-05T20:39:05.762Z,89.00
2018-10-05T20:41:38.562Z,88.60
2018-10-05T20:44:08.960Z,87.50
2018-10-05T20:46:43.064Z,87.80
2018-10-05T20:49:14.205Z,88.60
2018-10-05T20:51:44.628Z,88.50
2018-10-05T20:54:17.755Z,89.50
2018-10-05T20:56:48.147Z,90.00
2018-10-05T20:59:19.301Z,90.10
2018-10-05T21:01:49.691Z,90.00
2018-10-05T21:04:20.329Z,89.50
2018-10-05T21:06:50.660Z,90.20
2018-10-05T21:09:21.752Z,90.60
2018-10-05T21:11:52.151Z,90.60
2018-10-05T21:14:23.290Z,91.10
2018-10-05T21:16:53.680Z,91.00
2018-10-05T21:19:44.463Z,90.90
2018-10-05T21:22:14.865Z,90.90
2018-10-05T21:24:51.315Z,91.10
2018-10-05T21:27:22.476Z,91.90
2018-10-05T21:29:53.619Z,91.90
2018-10-05T21:32:24.770Z,91.70
2018-10-05T21:34:55.093Z,91.70
2018-10-05T21:37:25.487Z,91.50
2018-10-05T21:39:55.865Z,91.70
2018-10-05T21:42:26.289Z,91.80
2018-10-05T21:44:56.673Z,91.80
2018-10-05T21:47:27.688Z,92.10
2018-10-05T21:49:58.080Z,92.40
2018-10-05T21:52:28.493Z,92.50
2018-10-05T21:54:59.130Z,91.70
2018-10-05T21:57:29.522Z,91.40
2018-10-05T21:59:59.907Z,91.80
2018-10-05T22:02:30.302Z,92.40
2018-10-05T22:05:00.701Z,92.50
2018-10-05T22:07:31.076Z,92.70
2018-10-05T22:10:01.453Z,92.10
2018-10-05T22:12:32.872Z,91.20
2018-10-05T22:15:03.253Z,90.90
2018-10-05T22:17:33.640Z,90.30
2018-10-05T22:20:04.261Z,91.00
2018-10-05T22:22:34.598Z,91.50
2018-10-05T22:25:04.986Z,93.00
2018-10-05T22:27:35.381Z,93.90
2018-10-05T22:30:05.770Z,93.80
2018-10-05T22:32:36.161Z,94.10
2018-10-05T22:35:06.579Z,93.90
2018-10-05T22:37:36.937Z,93.60
2018-10-05T22:40:07.246Z,93.50
2018-10-05T22:42:37.637Z,93.90
2018-10-05T22:45:08.017Z,93.80
2018-10-05T22:47:38.388Z,93.80
2018-10-05T22:50:08.758Z,93.40
2018-10-05T22:52:39.120Z,93.60
2018-10-05T22:57:55.586Z,93.60
2018-10-05T23:00:25.958Z,93.60
2018-10-05T23:02:56.541Z,93.80
2018-10-05T23:05:26.944Z,93.80
2018-10-05T23:07:57.315Z,94.00
2018-10-05T23:10:28.731Z,93.40
2018-10-05T23:12:59.887Z,92.40
2018-10-05T23:15:31.040Z,91.80
2018-10-05T23:18:01.416Z,91.80
2018-10-05T23:20:31.817Z,92.30
2018-10-05T23:23:08.349Z,92.80
2018-10-05T23:25:39.498Z,93.00
2018-10-05T23:28:10.651Z,93.00
2018-10-05T23:30:41.028Z,93.00
2018-10-05T23:33:11.444Z,92.60
2018-10-05T23:35:41.824Z,92.80
2018-10-05T23:38:12.210Z,93.00
2018-10-05T23:40:42.612Z,93.10
2018-10-05T23:43:19.129Z,93.30
2018-10-05T23:45:50.219Z,93.30
2018-10-05T23:48:20.608Z,93.00
2018-10-05T23:50:51.758Z,93.10
2018-10-05T23:53:23.215Z,93.10
2018-10-05T23:55:53.606Z,93.10
2018-10-05T23:58:23.980Z,92.00
